Nápoli / Capodichino International Airport LIRN

Flugplatz Daten

Name: Nápoli / Capodichino International Airport

Ident: LIRN

Lat: 40,88600159

Long: 14,29080009

Platzhöhe: 294 ft

IataCode: NAP

City: Nápoli

Homepage: http://www.portal.gesac.it/

Metar

2022/08/13 17:20
LIRN 131720Z 24006KT 200V260 9999 SCT040 26/20 Q1010 NOSIG

Taf

2022/08/13 12:00
TAF LIRN 131100Z 1312/1412 20010KT 9999 SCT050
TEMPO 1312/1318 4000 TSRA FEW025CB
BECMG 1318/1320 04006KT
TEMPO 1402/1404 4000 BR
Gewünschte Webcam nicht vorhanden? Dann fügen Sie eine hinzu. Sie wird dann so schnell wie möglich freigeschaltet
Url: Title: